Cotton, GA (31739)

6:35 AM EST on February 06, 2016 (GMT -0500)
Deerhaven | | Change Station
CLOSE
Current Station
Personal Weather Station
Location: Cairo, GA
Elevation: 236 ft
Nearby Weather Stations
Active Advisory: Freeze Warning

Elev 236 ft 30.86 °N, 84.15 °W | Updated 3 minutes ago

Partly Cloudy
Partly Cloudy
34.4 °F
Feels Like 34 °F
N
0.0
Wind Variable Wind from ESE

Today
High -- | Low -- °F
--% Chance of Precip.
Yesterday
High -- | Low -- °F
Precip. -- in
Pressure 30.31 in
Visibility 10.0 miles
Clouds Clear
Windchill 34 °F
Dew Point 34 °F
Humidity 97%
Rainfall 0.00 in
Snow Depth Not available.
7:25 AM 6:16 PM
Waning Crescent, 6% visible
METAR KMGR 061115Z AUTO 04003KT 10SM CLR 03/00 A3031 RMK AO2
Pressure 30.31 in
Visibility 10.0 miles
Clouds Clear
Windchill 34 °F
Dew Point 34 °F
Humidity 97%
Rainfall 0.00 in
Snow Depth Not available.
7:25 AM 6:16 PM
Waning Crescent, 6% visible
METAR KMGR 061115Z AUTO 04003KT 10SM CLR 03/00 A3031 RMK AO2

10-Day Weather Forecast

Almanac

Astronomy

Feb. 06, 2016 Rise Set
Actual Time
Civil Twilight
Nautical Twilight
Astronomical Twilight
Moon
Length of Visible Light
Length of Day
Tomorrow will be .
, % of the Moon is Illuminated

Today's Extremes

State Highs State Lows

Community

WunderPhotos

Upload Photos

1,890,933 photos uploaded!

WunderBlog® & News

Nearby

Air Quality

  Air Quality AQ Index Pollutant
Not available.

Snow Depth

Station Depth Elevation

Earthquake Activity

City Distance Mag. Time & Date
Minimum magnitude displayed is 2.5.

Coastal Water Temperatures

Place Temperature

Stations

Nearby Weather Stations

Station Location Temp. Windchill Dew Point Humidity Wind Precip. Elev Updated Type
                   

Watches & Warnings

Freeze Warning
Issued: 2:36 PM CST Feb. 5, 2016 – National Weather Service

... Freeze warning in effect from 1 am EST /midnight CST/ to 8 am
EST /7 am CST/ Saturday...

The National Weather Service in Tallahassee has issued a freeze
warning... which is in effect from 1 am EST /midnight CST/ to 8 am
EST /7 am CST/ Saturday. The freeze watch is no longer in effect.

* Temperature... 28 to 32 degrees.

* Duration... 2 to 5 hours.

Precautionary/preparedness actions...

A freeze warning means sub-freezing temperatures are imminent or
highly likely. These conditions will kill crops and other
sensitive vegetation.